Candace — WDB8245 — position and weather

sailwx.info

Track history (hours):
 
Tides and Currents Weather Stations Pressure Air Temp Water Temp Dewpoint Dewpoint Depression Visibility Wind Speed Wind Dir Waves Ship Positions

Candace

Owner: WEEKS MARINE, INC., CRANFORD, NJ. More information available from US FCC via Universal Licensing System and Coast Guard Vessel Documentation Center.

Last reported at 2017-Nov-12 21:22 UTC. Time now 2017-Nov-19 08:27 UTC.
Position N 39°05' W 075°11'.

Length 20 m.

Type: Towing. MMSI: 366955450.

Date/timePositionNaut miles runAvg speedWind from/ knotsBaromVisibWave heightAir tempDewpointWater temp
2017-Nov-12 21:22N 39°05' W 075°11'2 5.2
2017-Nov-12 21:01N 39°07' W 075°13'2 4.8
2017-Nov-12 20:30N 39°09' W 075°14'2 4.8
2017-Nov-12 20:01N 39°10' W 075°16'2 4.7
2017-Nov-12 19:30N 39°13' W 075°17'3 5.2
2017-Nov-12 19:00N 39°15' W 075°19'3 5.5
2017-Nov-12 18:28N 39°17' W 075°22'3 6.5
2017-Nov-12 18:01N 39°19' W 075°24'4 7.2
2017-Nov-12 17:30N 39°22' W 075°27'4 8.2
2017-Nov-12 17:00N 39°25' W 075°31'4 7.8
2017-Nov-12 16:31N 39°28' W 075°34'4 8.2
2017-Nov-12 16:01N 39°32' W 075°33'4 7.7
2017-Nov-12 15:31N 39°36' W 075°34'3 6.7
2017-Nov-12 15:01N 39°39' W 075°33'4 7.0
2017-Nov-12 14:31N 39°42' W 075°31'3 6.4
2017-Nov-12 14:00N 39°45' W 075°29'3 5.1
2017-Nov-12 13:31N 39°47' W 075°27'3 5.2
2017-Nov-12 13:00N 39°49' W 075°24'2 3.9
2017-Nov-12 12:31N 39°50' W 075°22'0 0.8
2017-Nov-12 12:01N 39°50' W 075°22'0 0.4
2017-Nov-12 11:31N 39°49' W 075°22'0 0.0
2017-Nov-12 11:00N 39°49' W 075°22'0 0.0
2017-Nov-12 10:30N 39°49' W 075°22'0 0.0
2017-Nov-12 10:00N 39°49' W 075°22'0 0.0
2017-Nov-12 09:30N 39°49' W 075°22'0 0.0
2017-Nov-12 09:00N 39°49' W 075°22'0 0.0
2017-Nov-12 08:31N 39°49' W 075°22'0 0.0
2017-Nov-12 08:00N 39°49' W 075°22'0 0.0
2017-Nov-12 07:30N 39°49' W 075°22'0 0.0
2017-Nov-12 07:00N 39°49' W 075°22'0 0.0
2017-Nov-12 06:30N 39°49' W 075°22'0 0.0
2017-Nov-12 06:01N 39°49' W 075°22'0 0.0
2017-Nov-12 05:30N 39°49' W 075°22'0 0.0
2017-Nov-12 05:00N 39°49' W 075°22'0 0.0
2017-Nov-12 04:30N 39°49' W 075°22'0 0.0
2017-Nov-12 04:00N 39°49' W 075°22'0 0.0
2017-Nov-12 03:30N 39°49' W 075°22'0 0.0
2017-Nov-12 03:01N 39°49' W 075°22'0 0.0
2017-Nov-12 02:30N 39°49' W 075°22'0 0.0
2017-Nov-12 02:01N 39°49' W 075°22'0 0.0
2017-Nov-12 01:31N 39°49' W 075°22'0 0.0
2017-Nov-12 01:00N 39°49' W 075°22'0 0.0
2017-Nov-12 00:31N 39°49' W 075°22'1 2.1
2017-Nov-12 00:01N 39°50' W 075°21'1 2.1
2017-Nov-11 23:30N 39°49' W 075°22'0 0.0
2017-Nov-11 23:00N 39°49' W 075°22'0 0.0
2017-Nov-11 22:30N 39°49' W 075°22'0 0.0
2017-Nov-11 22:01N 39°49' W 075°22'0 0.0
2017-Nov-11 21:30N 39°49' W 075°22'0 0.0
2017-Nov-11 21:00N 39°49' W 075°22'0 0.0
2017-Nov-11 20:30N 39°49' W 075°22'0 0.0
2017-Nov-11 20:00N 39°49' W 075°22'0 0.0
2017-Nov-11 19:30N 39°49' W 075°22'0 0.0
2017-Nov-11 19:00N 39°49' W 075°22'0 0.0
2017-Nov-11 18:30N 39°49' W 075°22'0 0.0
2017-Nov-11 18:01N 39°49' W 075°22'0 0.0
2017-Nov-11 17:30N 39°49' W 075°22'0 0.0
2017-Nov-11 17:00N 39°49' W 075°22'0 0.0
2017-Nov-11 16:30N 39°49' W 075°22'0 0.0
2017-Nov-11 16:00N 39°49' W 075°22'0 0.0
2017-Nov-11 15:30N 39°49' W 075°22'0 0.0
2017-Nov-11 15:01N 39°49' W 075°22'0 0.0
2017-Nov-11 14:30N 39°49' W 075°22'0 0.0
2017-Nov-11 14:01N 39°49' W 075°22'0 0.0
2017-Nov-11 13:30N 39°49' W 075°22'0 0.0
2017-Nov-11 13:01N 39°49' W 075°22'0 0.0
2017-Nov-11 12:31N 39°49' W 075°22'0 0.0
2017-Nov-11 12:01N 39°49' W 075°22'0 0.0
2017-Nov-11 11:31N 39°49' W 075°22'0 0.0
2017-Nov-11 11:00N 39°49' W 075°22'0 0.0
2017-Nov-11 10:31N 39°49' W 075°22'0 0.0
2017-Nov-11 10:01N 39°49' W 075°22'2 4.0
2017-Nov-11 09:31N 39°51' W 075°20'4 7.9
2017-Nov-11 09:00N 39°51' W 075°15'4 8.3
2017-Nov-11 08:30N 39°53' W 075°10'3 6.9
2017-Nov-11 08:00N 39°56' W 075°08'1 2.7
2017-Nov-11 07:30N 39°57' W 075°08'0 0.0
2017-Nov-11 07:00N 39°57' W 075°08'0 0.0
2017-Nov-11 06:30N 39°57' W 075°08'0 0.0
2017-Nov-11 06:00N 39°57' W 075°08'0 0.0
2017-Nov-11 05:30N 39°57' W 075°08'0 0.0
2017-Nov-11 05:00N 39°57' W 075°08'0 0.0
2017-Nov-11 04:30N 39°57' W 075°08'0 0.0
2017-Nov-11 04:00N 39°57' W 075°08'0 0.0
2017-Nov-11 03:30N 39°57' W 075°08'0 0.6
2017-Nov-11 03:00N 39°57' W 075°08'4 8.0
2017-Nov-11 02:30N 39°53' W 075°08'4 8.2
2017-Nov-11 02:00N 39°52' W 075°13'4 8.6
2017-Nov-11 01:30N 39°51' W 075°19'4 8.7
2017-Nov-11 01:01N 39°49' W 075°24'4 8.6
2017-Nov-11 00:31N 39°46' W 075°28'5 9.1
2017-Nov-11 00:01N 39°42' W 075°31'5 9.7
2017-Nov-10 23:30N 39°38' W 075°34'510.0
2017-Nov-10 23:00N 39°33' W 075°32'510.5
2017-Nov-10 22:31N 39°28' W 075°34'510.0
2017-Nov-10 22:00N 39°24' W 075°30'5 9.7
2017-Nov-10 21:30N 39°20' W 075°26'5 9.8
2017-Nov-10 21:00N 39°17' W 075°21'5 9.5
2017-Nov-10 20:30N 39°13' W 075°18'5 9.6
2017-Nov-10 20:00N 39°09' W 075°14'60 6.5
2017-Nov-10 10:50N 39°38' W 074°07'4 9.8
2017-Nov-10 10:23N 39°42' W 074°04'  
Track history (hours):
 
Tides and Currents Weather Stations Pressure Air Temp Water Temp Dewpoint Dewpoint Depression Visibility Wind Speed Wind Dir Waves Ship Positions

Candace

Owner: WEEKS MARINE, INC., CRANFORD, NJ. More information available from US FCC via Universal Licensing System and Coast Guard Vessel Documentation Center.

Last reported at 2017-Nov-12 21:22 UTC. Time now 2017-Nov-19 08:27 UTC.
Position N 39°05' W 075°11'.

Length 20 m.

Type: Towing. MMSI: 366955450.

Date/timePositionNaut miles runAvg speedWind from/ knotsBaromVisibWave heightAir tempDewpointWater temp
2017-Nov-12 21:22N 39°05' W 075°11'2 5.2
2017-Nov-12 21:01N 39°07' W 075°13'2 4.8
2017-Nov-12 20:30N 39°09' W 075°14'2 4.8
2017-Nov-12 20:01N 39°10' W 075°16'2 4.7
2017-Nov-12 19:30N 39°13' W 075°17'3 5.2
2017-Nov-12 19:00N 39°15' W 075°19'3 5.5
2017-Nov-12 18:28N 39°17' W 075°22'3 6.5
2017-Nov-12 18:01N 39°19' W 075°24'4 7.2
2017-Nov-12 17:30N 39°22' W 075°27'4 8.2
2017-Nov-12 17:00N 39°25' W 075°31'4 7.8
2017-Nov-12 16:31N 39°28' W 075°34'4 8.2
2017-Nov-12 16:01N 39°32' W 075°33'4 7.7
2017-Nov-12 15:31N 39°36' W 075°34'3 6.7
2017-Nov-12 15:01N 39°39' W 075°33'4 7.0
2017-Nov-12 14:31N 39°42' W 075°31'3 6.4
2017-Nov-12 14:00N 39°45' W 075°29'3 5.1
2017-Nov-12 13:31N 39°47' W 075°27'3 5.2
2017-Nov-12 13:00N 39°49' W 075°24'2 3.9
2017-Nov-12 12:31N 39°50' W 075°22'0 0.8
2017-Nov-12 12:01N 39°50' W 075°22'0 0.4
2017-Nov-12 11:31N 39°49' W 075°22'0 0.0
2017-Nov-12 11:00N 39°49' W 075°22'0 0.0
2017-Nov-12 10:30N 39°49' W 075°22'0 0.0
2017-Nov-12 10:00N 39°49' W 075°22'0 0.0
2017-Nov-12 09:30N 39°49' W 075°22'0 0.0
2017-Nov-12 09:00N 39°49' W 075°22'0 0.0
2017-Nov-12 08:31N 39°49' W 075°22'0 0.0
2017-Nov-12 08:00N 39°49' W 075°22'0 0.0
2017-Nov-12 07:30N 39°49' W 075°22'0 0.0
2017-Nov-12 07:00N 39°49' W 075°22'0 0.0
2017-Nov-12 06:30N 39°49' W 075°22'0 0.0
2017-Nov-12 06:01N 39°49' W 075°22'0 0.0
2017-Nov-12 05:30N 39°49' W 075°22'0 0.0
2017-Nov-12 05:00N 39°49' W 075°22'0 0.0
2017-Nov-12 04:30N 39°49' W 075°22'0 0.0
2017-Nov-12 04:00N 39°49' W 075°22'0 0.0
2017-Nov-12 03:30N 39°49' W 075°22'0 0.0
2017-Nov-12 03:01N 39°49' W 075°22'0 0.0
2017-Nov-12 02:30N 39°49' W 075°22'0 0.0
2017-Nov-12 02:01N 39°49' W 075°22'0 0.0
2017-Nov-12 01:31N 39°49' W 075°22'0 0.0
2017-Nov-12 01:00N 39°49' W 075°22'0 0.0
2017-Nov-12 00:31N 39°49' W 075°22'1 2.1
2017-Nov-12 00:01N 39°50' W 075°21'1 2.1
2017-Nov-11 23:30N 39°49' W 075°22'0 0.0
2017-Nov-11 23:00N 39°49' W 075°22'0 0.0
2017-Nov-11 22:30N 39°49' W 075°22'0 0.0
2017-Nov-11 22:01N 39°49' W 075°22'0 0.0
2017-Nov-11 21:30N 39°49' W 075°22'0 0.0
2017-Nov-11 21:00N 39°49' W 075°22'0 0.0
2017-Nov-11 20:30N 39°49' W 075°22'0 0.0
2017-Nov-11 20:00N 39°49' W 075°22'0 0.0
2017-Nov-11 19:30N 39°49' W 075°22'0 0.0
2017-Nov-11 19:00N 39°49' W 075°22'0 0.0
2017-Nov-11 18:30N 39°49' W 075°22'0 0.0
2017-Nov-11 18:01N 39°49' W 075°22'0 0.0
2017-Nov-11 17:30N 39°49' W 075°22'0 0.0
2017-Nov-11 17:00N 39°49' W 075°22'0 0.0
2017-Nov-11 16:30N 39°49' W 075°22'0 0.0
2017-Nov-11 16:00N 39°49' W 075°22'0 0.0
2017-Nov-11 15:30N 39°49' W 075°22'0 0.0
2017-Nov-11 15:01N 39°49' W 075°22'0 0.0
2017-Nov-11 14:30N 39°49' W 075°22'0 0.0
2017-Nov-11 14:01N 39°49' W 075°22'0 0.0
2017-Nov-11 13:30N 39°49' W 075°22'0 0.0
2017-Nov-11 13:01N 39°49' W 075°22'0 0.0
2017-Nov-11 12:31N 39°49' W 075°22'0 0.0
2017-Nov-11 12:01N 39°49' W 075°22'0 0.0
2017-Nov-11 11:31N 39°49' W 075°22'0 0.0
2017-Nov-11 11:00N 39°49' W 075°22'0 0.0
2017-Nov-11 10:31N 39°49' W 075°22'0 0.0
2017-Nov-11 10:01N 39°49' W 075°22'2 4.0
2017-Nov-11 09:31N 39°51' W 075°20'4 7.9
2017-Nov-11 09:00N 39°51' W 075°15'4 8.3
2017-Nov-11 08:30N 39°53' W 075°10'3 6.9
2017-Nov-11 08:00N 39°56' W 075°08'1 2.7
2017-Nov-11 07:30N 39°57' W 075°08'0 0.0
2017-Nov-11 07:00N 39°57' W 075°08'0 0.0
2017-Nov-11 06:30N 39°57' W 075°08'0 0.0
2017-Nov-11 06:00N 39°57' W 075°08'0 0.0
2017-Nov-11 05:30N 39°57' W 075°08'0 0.0
2017-Nov-11 05:00N 39°57' W 075°08'0 0.0
2017-Nov-11 04:30N 39°57' W 075°08'0 0.0
2017-Nov-11 04:00N 39°57' W 075°08'0 0.0
2017-Nov-11 03:30N 39°57' W 075°08'0 0.6
2017-Nov-11 03:00N 39°57' W 075°08'4 8.0
2017-Nov-11 02:30N 39°53' W 075°08'4 8.2
2017-Nov-11 02:00N 39°52' W 075°13'4 8.6
2017-Nov-11 01:30N 39°51' W 075°19'4 8.7
2017-Nov-11 01:01N 39°49' W 075°24'4 8.6
2017-Nov-11 00:31N 39°46' W 075°28'5 9.1
2017-Nov-11 00:01N 39°42' W 075°31'5 9.7
2017-Nov-10 23:30N 39°38' W 075°34'510.0
2017-Nov-10 23:00N 39°33' W 075°32'510.5
2017-Nov-10 22:31N 39°28' W 075°34'510.0
2017-Nov-10 22:00N 39°24' W 075°30'5 9.7
2017-Nov-10 21:30N 39°20' W 075°26'5 9.8
2017-Nov-10 21:00N 39°17' W 075°21'5 9.5
2017-Nov-10 20:30N 39°13' W 075°18'5 9.6
2017-Nov-10 20:00N 39°09' W 075°14'60 6.5
2017-Nov-10 10:50N 39°38' W 074°07'4 9.8
2017-Nov-10 10:23N 39°42' W 074°04'  

Dump ship's entire track history